createdAt,value
2018-06-11T00:00:12.164Z,20.20
2018-06-11T00:02:39.743Z,20.20
2018-06-11T00:05:08.704Z,20.10
2018-06-11T00:07:36.286Z,20.10
2018-06-11T00:10:04.638Z,20.10
2018-06-11T00:12:32.374Z,20.10
2018-06-11T00:14:59.944Z,20.20
2018-06-11T00:17:28.253Z,20.10
2018-06-11T00:19:55.776Z,20.10
2018-06-11T00:22:23.332Z,20.10
2018-06-11T00:24:50.889Z,20.20
2018-06-11T00:27:18.416Z,20.20
2018-06-11T00:29:46.764Z,19.90
2018-06-11T00:32:15.806Z,19.80
2018-06-11T00:34:43.398Z,19.80
2018-06-11T00:37:10.941Z,19.90
2018-06-11T00:39:39.450Z,19.90
2018-06-11T00:42:07.042Z,19.90
2018-06-11T00:44:34.583Z,19.90
2018-06-11T00:47:02.135Z,19.90
2018-06-11T00:49:31.200Z,19.90
2018-06-11T00:51:58.764Z,19.90
2018-06-11T00:54:26.301Z,19.90
2018-06-11T00:56:53.856Z,19.80
2018-06-11T00:59:21.388Z,19.80
2018-06-11T01:01:49.725Z,19.70
2018-06-11T01:04:17.289Z,19.70
2018-06-11T01:06:44.819Z,19.60
2018-06-11T01:09:12.390Z,19.50
2018-06-11T01:11:39.917Z,19.50
2018-06-11T01:14:07.488Z,19.50
2018-06-11T01:16:35.049Z,19.40
2018-06-11T01:19:02.614Z,19.40
2018-06-11T01:21:31.113Z,19.40
2018-06-11T01:23:58.645Z,19.40
2018-06-11T01:26:26.211Z,19.30
2018-06-11T01:28:53.737Z,19.30
2018-06-11T01:31:21.318Z,19.30
2018-06-11T01:33:48.876Z,19.30
2018-06-11T01:36:16.411Z,19.30
2018-06-11T01:38:45.934Z,19.20
2018-06-11T01:41:13.464Z,19.20
2018-06-11T01:43:41.011Z,19.10
2018-06-11T01:46:08.575Z,19.00
2018-06-11T01:48:36.888Z,18.90
2018-06-11T01:51:04.462Z,18.80
2018-06-11T01:53:31.993Z,18.80
2018-06-11T01:56:00.292Z,18.80
2018-06-11T01:58:27.852Z,18.70
2018-06-11T02:00:55.406Z,18.70
2018-06-11T02:03:22.960Z,18.70
2018-06-11T02:05:51.265Z,18.80
2018-06-11T02:08:18.831Z,18.70
2018-06-11T02:10:46.391Z,18.80
2018-06-11T02:13:13.924Z,18.80
2018-06-11T02:15:41.489Z,18.70
2018-06-11T02:18:09.040Z,18.50
2018-06-11T02:20:37.529Z,18.50
2018-06-11T02:23:05.065Z,18.60
2018-06-11T02:25:33.408Z,18.50
2018-06-11T02:28:01.525Z,18.50
2018-06-11T02:30:29.241Z,18.40
2018-06-11T02:32:56.775Z,18.40
2018-06-11T02:35:24.308Z,18.40
2018-06-11T02:37:51.860Z,18.40
2018-06-11T02:40:20.155Z,18.50
2018-06-11T02:42:47.737Z,18.40
2018-06-11T02:45:17.123Z,18.40
2018-06-11T02:47:46.339Z,18.30
2018-06-11T02:50:14.106Z,18.30
2018-06-11T02:52:41.689Z,18.20
2018-06-11T02:55:09.272Z,18.20
2018-06-11T02:57:37.597Z,18.20
2018-06-11T03:00:05.165Z,18.20
2018-06-11T03:02:32.717Z,18.10
2018-06-11T03:05:00.294Z,18.10
2018-06-11T03:07:27.871Z,17.90
2018-06-11T03:09:55.467Z,17.90
2018-06-11T03:12:23.025Z,17.90
2018-06-11T03:14:50.569Z,17.80
2018-06-11T03:17:18.903Z,17.70
2018-06-11T03:19:46.457Z,17.70
2018-06-11T03:22:15.368Z,17.80
2018-06-11T03:24:42.953Z,17.80
2018-06-11T03:27:11.413Z,17.70
2018-06-11T03:29:38.977Z,17.70
2018-06-11T03:32:07.314Z,17.80
2018-06-11T03:34:34.853Z,17.80
2018-06-11T03:37:02.428Z,17.70
2018-06-11T03:39:30.007Z,17.80
2018-06-11T03:41:57.786Z,17.70
2018-06-11T03:44:26.903Z,17.50
2018-06-11T03:46:55.249Z,17.40
2018-06-11T03:49:22.807Z,17.40
2018-06-11T03:51:51.325Z,17.40
2018-06-11T03:54:21.600Z,17.60
2018-06-11T03:56:49.141Z,17.60
2018-06-11T03:59:16.700Z,17.70
2018-06-11T04:01:44.264Z,17.70
2018-06-11T04:04:11.811Z,17.60
2018-06-11T04:06:39.381Z,17.40
2018-06-11T04:09:06.911Z,17.50
2018-06-11T04:11:34.453Z,17.60
2018-06-11T04:14:02.017Z,17.70
2018-06-11T04:16:30.356Z,18.00
2018-06-11T04:18:57.903Z,17.90
2018-06-11T04:21:25.473Z,18.00
2018-06-11T04:23:53.029Z,18.10
2018-06-11T04:26:21.968Z,18.20
2018-06-11T04:28:49.524Z,18.30
2018-06-11T04:31:18.670Z,18.40
2018-06-11T04:33:47.250Z,18.50
2018-06-11T04:36:14.805Z,18.50
2018-06-11T04:38:44.344Z,18.60
2018-06-11T04:41:11.882Z,18.60
2018-06-11T04:43:39.473Z,18.70
2018-06-11T04:46:07.013Z,18.80
2018-06-11T04:48:34.983Z,18.90
2018-06-11T04:51:02.548Z,19.00
2018-06-11T04:53:30.877Z,19.20
2018-06-11T04:55:58.451Z,19.20
2018-06-11T04:58:25.978Z,19.30
2018-06-11T05:00:53.547Z,19.40
2018-06-11T05:03:21.093Z,19.50
2018-06-11T05:05:48.790Z,19.50
2018-06-11T05:08:16.381Z,19.60
2018-06-11T05:10:43.929Z,19.70
2018-06-11T05:13:12.456Z,19.70
2018-06-11T05:15:40.813Z,19.70
2018-06-11T05:18:08.373Z,19.70
2018-06-11T05:20:35.915Z,19.70
2018-06-11T05:23:03.485Z,19.70
2018-06-11T05:25:31.030Z,19.70
2018-06-11T05:27:58.589Z,19.80
2018-06-11T05:30:26.196Z,19.70
2018-06-11T05:32:54.510Z,19.90
2018-06-11T05:35:22.329Z,19.90
2018-06-11T05:37:49.907Z,19.90
2018-06-11T05:40:19.412Z,20.00
2018-06-11T05:42:46.995Z,20.00
2018-06-11T05:45:14.559Z,20.00
2018-06-11T05:47:42.580Z,19.80
2018-06-11T05:50:12.541Z,20.00
2018-06-11T05:52:41.390Z,20.00
2018-06-11T05:55:09.692Z,20.20
2018-06-11T05:57:37.241Z,20.20
2018-06-11T06:00:04.774Z,20.20
2018-06-11T06:02:32.341Z,20.30
2018-06-11T06:05:01.599Z,20.40
2018-06-11T06:07:29.128Z,20.40
2018-06-11T06:09:56.698Z,20.40
2018-06-11T06:12:24.229Z,20.60
2018-06-11T06:14:52.548Z,20.70
2018-06-11T06:17:20.249Z,20.70
2018-06-11T06:19:47.861Z,20.70
2018-06-11T06:22:15.393Z,20.80
2018-06-11T06:24:42.970Z,20.80
2018-06-11T06:27:10.497Z,20.80
2018-06-11T06:29:38.798Z,20.80
2018-06-11T06:32:06.470Z,20.80
2018-06-11T06:34:34.135Z,20.90
2018-06-11T06:37:03.499Z,21.00
2018-06-11T06:39:32.765Z,21.10
2018-06-11T06:42:00.345Z,21.10
2018-06-11T06:44:27.901Z,21.20
2018-06-11T06:46:56.338Z,21.30
2018-06-11T06:51:56.826Z,21.40
2018-06-11T06:54:24.361Z,21.30
2018-06-11T06:56:52.001Z,21.50
2018-06-11T06:59:19.549Z,21.60
2018-06-11T07:01:47.099Z,21.60
2018-06-11T07:04:14.671Z,21.70
2018-06-11T07:06:42.200Z,21.80
2018-06-11T07:09:10.502Z,21.70
2018-06-11T07:11:38.230Z,21.70
2018-06-11T07:14:06.532Z,21.60
2018-06-11T07:16:34.092Z,21.60
2018-06-11T07:19:01.645Z,21.80
2018-06-11T07:21:29.181Z,21.90
2018-06-11T07:23:57.504Z,22.00
2018-06-11T07:26:25.041Z,21.90
2018-06-11T07:28:52.584Z,22.00
2018-06-11T07:31:20.917Z,22.10
2018-06-11T07:33:48.462Z,22.10
2018-06-11T07:36:16.016Z,22.10
2018-06-11T07:38:43.539Z,22.20
2018-06-11T07:41:11.099Z,22.10
2018-06-11T07:43:38.658Z,22.10
2018-06-11T07:46:06.959Z,22.50
2018-06-11T07:48:34.493Z,22.50
2018-06-11T07:51:02.048Z,22.60
2018-06-11T07:53:30.340Z,22.80
2018-06-11T07:55:57.915Z,22.70
2018-06-11T07:58:25.485Z,22.60
2018-06-11T08:00:53.027Z,22.60
2018-06-11T08:03:20.602Z,22.60
2018-06-11T08:05:48.137Z,22.70
2018-06-11T08:08:15.685Z,22.90
2018-06-11T08:10:44.014Z,23.10
2018-06-11T08:13:11.540Z,23.10
2018-06-11T08:15:39.112Z,23.30
2018-06-11T08:18:06.678Z,23.40
2018-06-11T08:20:36.198Z,23.50
2018-06-11T08:23:03.763Z,23.50
2018-06-11T08:25:31.332Z,23.50
2018-06-11T08:27:58.894Z,23.50
2018-06-11T08:30:26.470Z,23.50
2018-06-11T08:32:54.779Z,23.50
2018-06-11T08:35:22.341Z,23.50
2018-06-11T08:37:49.870Z,23.40
2018-06-11T08:40:18.620Z,23.30
2018-06-11T08:42:46.175Z,23.30
2018-06-11T08:45:13.703Z,23.30
2018-06-11T08:47:41.252Z,23.40
2018-06-11T08:50:09.074Z,23.40
2018-06-11T08:52:36.598Z,23.30
2018-06-11T08:55:04.146Z,23.40
2018-06-11T08:57:31.685Z,23.40
2018-06-11T08:59:59.305Z,23.40
2018-06-11T09:02:26.837Z,23.40
2018-06-11T09:04:54.397Z,23.30
2018-06-11T09:07:21.960Z,23.30
2018-06-11T09:09:49.481Z,23.30
2018-06-11T09:12:17.809Z,23.30
2018-06-11T09:14:45.779Z,23.20
2018-06-11T09:17:13.383Z,23.30
2018-06-11T09:19:40.925Z,23.30
2018-06-11T09:22:10.493Z,23.20
2018-06-11T09:24:38.045Z,23.30
2018-06-11T09:27:05.827Z,23.40
2018-06-11T09:29:33.383Z,23.50
2018-06-11T09:32:00.943Z,23.50
2018-06-11T09:34:28.467Z,23.40
2018-06-11T09:36:56.039Z,23.60
2018-06-11T09:39:23.569Z,23.90
2018-06-11T09:41:52.121Z,24.00
2018-06-11T09:44:19.682Z,24.30
2018-06-11T09:46:47.221Z,24.50
2018-06-11T09:49:14.779Z,24.70
2018-06-11T09:51:42.329Z,24.60
2018-06-11T09:54:09.886Z,24.90
2018-06-11T09:56:39.390Z,25.20
2018-06-11T09:59:06.924Z,25.10
2018-06-11T10:01:34.494Z,25.00
2018-06-11T10:04:02.057Z,25.00
2018-06-11T10:06:29.600Z,25.00
2018-06-11T10:08:57.895Z,24.70
2018-06-11T10:11:25.460Z,24.70
2018-06-11T10:13:53.011Z,24.70
2018-06-11T10:16:20.573Z,24.80
2018-06-11T10:18:48.104Z,25.00
2018-06-11T10:21:15.677Z,25.30
2018-06-11T10:23:44.192Z,25.60
2018-06-11T10:26:11.722Z,25.90
2018-06-11T10:28:40.242Z,25.90
2018-06-11T10:31:07.809Z,26.10
2018-06-11T10:33:35.348Z,25.70
2018-06-11T10:36:02.918Z,25.40
2018-06-11T10:38:30.454Z,25.50
2018-06-11T10:40:58.036Z,26.00
2018-06-11T10:43:25.608Z,26.20
2018-06-11T10:45:53.146Z,26.30
2018-06-11T10:48:20.797Z,26.50
2018-06-11T10:50:50.298Z,26.30
2018-06-11T10:53:17.865Z,26.30
2018-06-11T10:55:45.524Z,26.10
2018-06-11T10:58:13.086Z,26.10
2018-06-11T11:00:40.642Z,26.20
2018-06-11T11:03:08.212Z,26.00
2018-06-11T11:05:35.776Z,25.90
2018-06-11T11:08:05.285Z,25.60
2018-06-11T11:10:33.791Z,25.50
2018-06-11T11:13:01.365Z,25.50
2018-06-11T11:15:29.728Z,26.00
2018-06-11T11:17:57.285Z,26.00
2018-06-11T11:20:24.874Z,26.20
2018-06-11T11:22:52.565Z,26.30
2018-06-11T11:25:21.028Z,26.50
2018-06-11T11:27:48.592Z,26.70
2018-06-11T11:30:17.128Z,26.90
2018-06-11T11:32:44.951Z,26.70
2018-06-11T11:35:12.514Z,26.50
2018-06-11T11:37:40.057Z,26.30
2018-06-11T11:40:09.600Z,26.30
2018-06-11T11:42:37.151Z,26.50
2018-06-11T11:45:04.692Z,26.70
2018-06-11T11:47:32.277Z,26.60
2018-06-11T11:49:59.824Z,26.00
2018-06-11T11:52:27.523Z,25.80
2018-06-11T11:54:55.152Z,25.60
2018-06-11T11:57:22.694Z,25.50
2018-06-11T11:59:50.249Z,25.40
2018-06-11T12:02:18.783Z,25.00
2018-06-11T12:04:46.325Z,25.00
2018-06-11T12:07:13.897Z,25.10
2018-06-11T12:09:41.433Z,25.10
2018-06-11T12:12:10.719Z,24.70
2018-06-11T12:14:38.279Z,24.60
2018-06-11T12:17:05.806Z,24.40
2018-06-11T12:19:34.319Z,24.00
2018-06-11T12:22:01.855Z,23.70
2018-06-11T12:24:29.386Z,23.80
2018-06-11T12:26:57.717Z,23.40
2018-06-11T12:29:25.252Z,23.40
2018-06-11T12:31:52.834Z,23.10
2018-06-11T12:34:20.392Z,23.10
2018-06-11T12:36:47.953Z,23.30
2018-06-11T12:39:15.526Z,23.50
2018-06-11T12:41:43.070Z,23.80
2018-06-11T12:44:10.597Z,24.00
2018-06-11T12:46:38.944Z,24.10
2018-06-11T12:49:06.475Z,24.00
2018-06-11T12:51:34.043Z,23.80
2018-06-11T12:54:01.607Z,23.80
2018-06-11T12:56:29.161Z,23.90
2018-06-11T12:58:56.751Z,23.90
2018-06-11T13:01:24.280Z,24.20
2018-06-11T13:03:51.857Z,24.30
2018-06-11T13:06:19.409Z,24.50
2018-06-11T13:08:46.939Z,24.40
2018-06-11T13:11:14.511Z,23.90
2018-06-11T13:13:42.061Z,23.70
2018-06-11T13:16:09.613Z,23.60
2018-06-11T13:18:37.169Z,23.10
2018-06-11T13:21:04.730Z,22.80
2018-06-11T13:23:32.289Z,22.60
2018-06-11T13:25:59.848Z,22.60
2018-06-11T13:28:27.376Z,22.50
2018-06-11T13:30:55.705Z,22.50
2018-06-11T13:33:23.233Z,22.50
2018-06-11T13:35:51.781Z,22.60
2018-06-11T13:38:20.365Z,22.80
2018-06-11T13:40:48.286Z,22.80
2018-06-11T13:43:15.910Z,23.20
2018-06-11T13:45:44.353Z,23.20
2018-06-11T13:48:12.106Z,23.10
2018-06-11T13:50:39.644Z,23.00
2018-06-11T13:53:07.177Z,22.60
2018-06-11T13:55:36.153Z,22.70
2018-06-11T13:58:04.452Z,22.50
2018-06-11T14:00:32.005Z,22.50
2018-06-11T14:02:59.932Z,22.40
2018-06-11T14:05:27.658Z,22.40
2018-06-11T14:07:55.361Z,22.30
2018-06-11T14:10:22.897Z,22.20
2018-06-11T14:12:51.140Z,22.20
2018-06-11T14:15:18.701Z,22.10
2018-06-11T14:17:46.241Z,22.00
2018-06-11T14:20:14.560Z,22.30
2018-06-11T14:22:42.089Z,22.30
2018-06-11T14:25:09.618Z,22.40
2018-06-11T14:27:37.948Z,22.50
2018-06-11T14:30:05.492Z,22.50
2018-06-11T14:32:33.053Z,22.60
2018-06-11T14:35:00.608Z,22.50
2018-06-11T14:37:28.147Z,22.50
2018-06-11T14:39:56.468Z,22.50
2018-06-11T14:42:24.001Z,22.50
2018-06-11T14:44:51.534Z,22.50
2018-06-11T14:47:19.856Z,22.50
2018-06-11T14:49:47.385Z,22.50
2018-06-11T14:52:15.028Z,22.40
2018-06-11T14:54:42.557Z,22.20
2018-06-11T14:57:11.069Z,22.10
2018-06-11T14:59:38.620Z,22.00
2018-06-11T15:02:06.164Z,22.00
2018-06-11T15:04:33.693Z,22.00
2018-06-11T15:07:01.253Z,22.00
2018-06-11T15:09:28.833Z,22.00
2018-06-11T15:11:56.375Z,22.00
2018-06-11T15:14:23.943Z,22.10
2018-06-11T15:16:51.475Z,22.20
2018-06-11T15:19:19.047Z,22.00
2018-06-11T15:21:46.576Z,22.00
2018-06-11T15:24:14.873Z,21.90
2018-06-11T15:26:42.448Z,21.90
2018-06-11T15:29:09.993Z,21.50
2018-06-11T15:31:37.584Z,21.10
2018-06-11T15:34:05.142Z,20.90
2018-06-11T15:36:32.677Z,21.30
2018-06-11T15:39:01.008Z,21.70
2018-06-11T15:41:28.532Z,22.30
2018-06-11T15:43:56.060Z,23.00
2018-06-11T15:46:23.614Z,23.90
2018-06-11T15:48:51.137Z,24.00
2018-06-11T15:51:18.685Z,23.40
2018-06-11T15:53:47.044Z,22.30
2018-06-11T15:56:14.580Z,22.30
2018-06-11T15:58:44.110Z,22.40
2018-06-11T16:01:11.631Z,22.70
2018-06-11T16:03:39.157Z,23.10
2018-06-11T16:06:06.720Z,24.80
2018-06-11T16:08:34.252Z,27.00
2018-06-11T16:11:01.810Z,29.20
2018-06-11T16:13:29.363Z,30.30
2018-06-11T16:15:57.845Z,31.00
2018-06-11T16:18:25.417Z,32.20
2018-06-11T16:20:52.972Z,33.00
2018-06-11T16:23:20.505Z,33.60
2018-06-11T16:25:48.065Z,33.60
2018-06-11T16:28:15.630Z,33.90
2018-06-11T16:30:43.774Z,32.80
2018-06-11T16:33:12.271Z,33.80
2018-06-11T16:35:40.752Z,33.80
2018-06-11T16:38:08.312Z,34.00
2018-06-11T16:40:35.840Z,33.60
2018-06-11T16:43:05.166Z,32.50
2018-06-11T16:45:32.808Z,32.50
2018-06-11T16:48:01.091Z,30.50
2018-06-11T16:50:28.670Z,29.20
2018-06-11T16:52:56.252Z,29.60
2018-06-11T16:55:24.214Z,29.70
2018-06-11T16:57:51.812Z,29.80
2018-06-11T17:00:21.077Z,31.10
2018-06-11T17:02:49.655Z,31.10
2018-06-11T17:05:17.188Z,30.20
2018-06-11T17:07:44.962Z,29.30
2018-06-11T17:10:13.478Z,26.90
2018-06-11T17:12:41.015Z,26.80
2018-06-11T17:15:09.623Z,26.20
2018-06-11T17:17:38.067Z,25.70
2018-06-11T17:20:06.767Z,25.30
2018-06-11T17:22:35.071Z,25.10
2018-06-11T17:25:04.127Z,24.20
2018-06-11T17:27:35.621Z,24.20
2018-06-11T17:30:05.116Z,24.40
2018-06-11T17:32:34.400Z,24.60
2018-06-11T17:35:02.861Z,24.60
2018-06-11T17:37:32.167Z,24.50
2018-06-11T17:40:00.750Z,24.30
2018-06-11T17:42:30.090Z,24.30
2018-06-11T17:44:59.734Z,24.30
2018-06-11T17:47:28.522Z,24.40
2018-06-11T17:49:56.937Z,24.30
2018-06-11T17:52:26.164Z,24.10
2018-06-11T17:54:54.810Z,24.10
2018-06-11T17:57:25.476Z,24.10
2018-06-11T17:59:54.797Z,23.50
2018-06-11T18:02:23.259Z,23.50
2018-06-11T18:04:51.848Z,23.30
2018-06-11T18:07:21.273Z,23.20
2018-06-11T18:09:49.527Z,23.10
2018-06-11T18:12:17.766Z,22.90
2018-06-11T18:14:51.601Z,22.80
2018-06-11T18:17:19.539Z,22.70
2018-06-11T18:19:48.066Z,22.60
2018-06-11T18:22:17.660Z,22.30
2018-06-11T18:24:46.560Z,22.30
2018-06-11T18:27:15.099Z,22.20
2018-06-11T18:29:43.768Z,22.00
2018-06-11T18:32:13.708Z,21.90
2018-06-11T18:34:41.945Z,21.80
2018-06-11T18:37:10.571Z,21.90
2018-06-11T18:39:39.631Z,22.20
2018-06-11T18:42:08.016Z,22.20
2018-06-11T18:44:36.165Z,22.20
2018-06-11T18:47:04.071Z,22.20
2018-06-11T18:49:32.750Z,22.10
2018-06-11T18:52:01.543Z,22.00
2018-06-11T18:54:29.828Z,21.90
2018-06-11T18:56:58.504Z,21.70
2018-06-11T18:59:28.302Z,21.40
2018-06-11T19:01:56.671Z,21.40
2018-06-11T19:04:25.381Z,21.30
2018-06-11T19:06:54.065Z,21.20
2018-06-11T19:09:24.104Z,21.00
2018-06-11T19:11:53.802Z,20.80
2018-06-11T19:14:23.252Z,20.70
2018-06-11T19:16:51.267Z,20.70
2018-06-11T19:19:20.559Z,20.70
2018-06-11T19:21:48.754Z,20.70
2018-06-11T19:24:17.030Z,20.70
2018-06-11T19:26:45.311Z,20.70
2018-06-11T19:29:14.022Z,20.70
2018-06-11T19:31:43.430Z,20.60
2018-06-11T19:34:11.884Z,20.50
2018-06-11T19:36:41.171Z,20.40
2018-06-11T19:39:09.710Z,20.40
2018-06-11T19:41:38.950Z,20.20
2018-06-11T19:44:08.214Z,20.20
2018-06-11T19:46:36.432Z,20.00
2018-06-11T19:49:04.779Z,19.90
2018-06-11T19:51:33.586Z,19.80
2018-06-11T19:54:03.032Z,19.60
2018-06-11T19:56:32.108Z,19.60
2018-06-11T19:59:02.069Z,19.40
2018-06-11T20:01:32.038Z,19.40
2018-06-11T20:04:01.423Z,19.10
2018-06-11T20:06:30.756Z,19.00
2018-06-11T20:09:01.487Z,19.00
2018-06-11T20:11:30.586Z,19.00
2018-06-11T20:13:58.719Z,19.00
2018-06-11T20:16:27.199Z,19.00
2018-06-11T20:18:56.390Z,19.10
2018-06-11T20:21:24.569Z,19.10
2018-06-11T20:23:52.492Z,19.10
2018-06-11T20:26:23.644Z,19.00
2018-06-11T20:28:54.839Z,18.80
2018-06-11T20:31:26.485Z,18.80
2018-06-11T20:33:55.273Z,18.80
2018-06-11T20:36:26.524Z,18.80
2018-06-11T20:38:58.477Z,18.70
2018-06-11T20:44:03.216Z,18.70
2018-06-11T20:46:31.584Z,18.60
2018-06-11T20:49:00.300Z,18.60
2018-06-11T20:51:29.395Z,18.60
2018-06-11T20:53:57.657Z,18.40
2018-06-11T20:56:26.680Z,18.40
2018-06-11T20:58:55.203Z,18.40
2018-06-11T21:01:23.430Z,18.20
2018-06-11T21:03:51.636Z,18.10
2018-06-11T21:06:20.061Z,17.90
2018-06-11T21:08:47.835Z,17.80
2018-06-11T21:11:15.989Z,17.90
2018-06-11T21:13:44.082Z,18.00
2018-06-11T21:16:13.579Z,18.10
2018-06-11T21:18:42.672Z,18.10
2018-06-11T21:21:11.770Z,18.00
2018-06-11T21:23:39.706Z,18.10
2018-06-11T21:26:09.229Z,18.00
2018-06-11T21:28:38.462Z,18.00
2018-06-11T21:31:07.956Z,18.00
2018-06-11T21:33:36.116Z,17.90
2018-06-11T21:36:04.602Z,18.00
2018-06-11T21:38:33.630Z,17.90
2018-06-11T21:41:01.712Z,17.90
2018-06-11T21:43:30.069Z,18.00
2018-06-11T21:45:58.315Z,18.10
2018-06-11T21:48:26.112Z,18.00
2018-06-11T21:50:55.072Z,18.00
2018-06-11T21:53:24.424Z,18.00
2018-06-11T21:55:52.548Z,17.90
2018-06-11T21:58:21.243Z,17.90
2018-06-11T22:00:50.781Z,18.00
2018-06-11T22:03:20.432Z,18.00
2018-06-11T22:05:48.633Z,18.00
2018-06-11T22:08:17.136Z,18.00
2018-06-11T22:10:46.163Z,17.90
2018-06-11T22:13:15.059Z,17.90
2018-06-11T22:15:42.669Z,18.00
2018-06-11T22:18:10.337Z,17.90
2018-06-11T22:20:37.936Z,17.90
2018-06-11T22:23:05.468Z,17.90
2018-06-11T22:25:33.979Z,18.00
2018-06-11T22:28:03.536Z,18.00
2018-06-11T22:30:31.179Z,18.10
2018-06-11T22:32:58.681Z,18.20
2018-06-11T22:35:27.035Z,18.10
2018-06-11T22:37:54.671Z,18.10
2018-06-11T22:40:22.263Z,18.00
2018-06-11T22:42:49.814Z,18.00
2018-06-11T22:45:17.381Z,18.10
2018-06-11T22:47:44.928Z,18.10
2018-06-11T22:50:12.492Z,18.00
2018-06-11T22:52:40.053Z,18.00
2018-06-11T22:55:07.703Z,18.00
2018-06-11T22:57:35.282Z,18.00
2018-06-11T23:00:02.847Z,17.90
2018-06-11T23:02:30.398Z,17.90
2018-06-11T23:04:58.070Z,17.90
2018-06-11T23:07:26.368Z,18.00
2018-06-11T23:09:53.914Z,18.00
2018-06-11T23:12:21.665Z,18.00
2018-06-11T23:14:51.021Z,17.90
2018-06-11T23:25:59.430Z,17.70
2018-06-11T23:28:26.975Z,17.60
2018-06-11T23:30:54.545Z,17.60
2018-06-11T23:33:22.307Z,17.70
2018-06-11T23:35:49.874Z,17.80
2018-06-11T23:38:18.517Z,17.80
2018-06-11T23:40:46.068Z,17.70
2018-06-11T23:43:14.656Z,17.70
2018-06-11T23:45:42.470Z,17.80
2018-06-11T23:48:10.050Z,17.80
2018-06-11T23:50:37.576Z,17.70
2018-06-11T23:53:05.128Z,17.70
2018-06-11T23:55:32.708Z,17.70
2018-06-11T23:58:00.256Z,17.70
